Time;durP1;ratioP1;P1;durP2;ratioP2;P2;SDS_P1;SDS_P2;PMS_P1;PMS_P2;Temp;Humidity;BMP_temperature;BMP_pressure;BME280_temperature;BME280_humidity;BME280_pressure;Samples;Min_cycle;Max_cycle;Signal;HPM_P1;HPM_P2
2022/05/22 00:00:25;;;;;;;239.40;194.35;;;16.00;76.90;;;;;;4919590;28;95354;-54
2022/05/22 00:02:57;;;;;;;265.58;217.23;;;16.00;77.00;;;;;;4919237;28;96723;-54
2022/05/22 00:05:29;;;;;;;251.93;211.18;;;16.10;77.70;;;;;;4918957;28;95326;-51
2022/05/22 00:08:03;;;;;;;239.07;195.63;;;16.10;77.00;;;;;;4919825;28;94995;-54
2022/05/22 00:10:35;;;;;;;231.40;191.68;;;16.10;77.10;;;;;;4919779;28;95219;-50
2022/05/22 00:13:09;;;;;;;221.32;180.52;;;16.10;77.00;;;;;;4918804;28;96512;-53
2022/05/22 00:16:36;;;;;;;217.48;177.88;;;16.10;76.90;;;;;;4918571;28;95843;-50
2022/05/22 00:18:33;;;;;;;217.45;175.65;;;16.10;76.90;;;;;;4918618;28;94973;-53
2022/05/22 00:21:07;;;;;;;208.57;164.38;;;16.10;76.70;;;;;;4917339;28;95346;-54
2022/05/22 00:23:39;;;;;;;200.55;163.32;;;16.10;76.70;;;;;;4918706;28;96419;-53
2022/05/22 00:26:11;;;;;;;197.40;162.38;;;16.10;76.60;;;;;;4918621;28;95828;-53
2022/05/22 00:28:44;;;;;;;186.88;149.43;;;16.00;76.50;;;;;;4917419;28;95031;-51
2022/05/22 00:31:16;;;;;;;192.23;156.90;;;16.10;76.40;;;;;;4918820;28;95184;-51
2022/05/22 00:33:49;;;;;;;180.77;151.68;;;16.10;76.30;;;;;;4917024;28;96675;-52
2022/05/22 00:36:19;;;;;;;187.00;152.90;;;16.00;76.30;;;;;;4918419;28;95841;-50
2022/05/22 00:38:50;;;;;;;177.10;146.23;;;16.10;76.20;;;;;;4918746;28;95092;-54
2022/05/22 00:41:22;;;;;;;173.13;140.32;;;16.10;76.20;;;;;;4918604;28;95317;-51
2022/05/22 00:43:57;;;;;;;171.48;140.23;;;16.10;76.20;;;;;;4918315;28;95960;-48
2022/05/22 00:46:32;;;;;;;167.68;140.68;;;16.10;76.20;;;;;;4919185;28;95437;-55
2022/05/22 00:49:18;;;;;;;155.48;126.40;;;16.10;76.20;;;;;;4919728;28;95054;-50
2022/05/22 00:51:57;;;;;;;162.02;131.02;;;16.10;76.10;;;;;;4918402;28;95373;-50
2022/05/22 00:54:41;;;;;;;161.60;129.60;;;16.10;76.10;;;;;;4919271;28;96418;-53
2022/05/22 00:57:19;;;;;;;147.55;119.82;;;16.10;76.10;;;;;;4918779;28;95855;-53
2022/05/22 00:59:58;;;;;;;150.07;117.30;;;16.10;76.10;;;;;;4918498;28;94950;-53
2022/05/22 01:03:26;;;;;;;140.55;115.90;;;16.10;76.00;;;;;;4917419;28;95399;-49
2022/05/22 01:05:23;;;;;;;141.63;113.72;;;16.10;76.00;;;;;;4917630;28;95952;-52
2022/05/22 01:07:57;;;;;;;135.45;108.82;;;16.10;76.00;;;;;;4917859;28;95849;-49
2022/05/22 01:10:45;;;;;;;122.47;102.40;;;16.10;76.00;;;;;;4918214;28;95297;-54
2022/05/22 01:13:26;;;;;;;129.55;108.78;;;16.10;76.00;;;;;;4918161;28;95326;-48
2022/05/22 01:15:59;;;;;;;124.60;104.35;;;16.10;76.00;;;;;;4918014;28;96232;-50
2022/05/22 01:18:45;;;;;;;123.32;101.00;;;16.10;75.90;;;;;;4900400;28;95765;-48
2022/05/22 01:21:22;;;;;;;126.07;99.68;;;16.20;76.00;;;;;;4916687;28;95103;-52
2022/05/22 01:23:55;;;;;;;119.47;100.38;;;16.10;75.90;;;;;;4918361;28;95315;-50
2022/05/22 01:26:30;;;;;;;122.22;98.43;;;16.10;75.90;;;;;;4916382;28;96479;-50
2022/05/22 01:29:09;;;;;;;118.78;95.70;;;16.20;76.00;;;;;;4918110;28;95392;-55
2022/05/22 01:31:42;;;;;;;115.68;96.50;;;16.20;75.90;;;;;;4917357;28;95091;-47
2022/05/22 01:34:14;;;;;;;118.25;95.45;;;16.20;75.90;;;;;;4933169;28;95275;-50
2022/05/22 01:36:45;;;;;;;110.03;88.50;;;16.20;75.90;;;;;;4918119;28;96523;-52
2022/05/22 01:39:18;;;;;;;104.88;82.82;;;16.20;75.90;;;;;;4916810;28;95862;-51
2022/05/22 01:41:54;;;;;;;96.32;77.32;;;16.20;75.90;;;;;;4918578;28;94980;-53
2022/05/22 01:44:26;;;;;;;98.47;79.05;;;16.20;76.00;;;;;;4918630;28;95370;-51
2022/05/22 01:46:57;;;;;;;94.55;75.57;;;16.20;75.90;;;;;;4918011;28;96028;-50
2022/05/22 01:49:32;;;;;;;91.80;73.97;;;16.20;75.90;;;;;;4916849;28;97957;-53
2022/05/22 01:52:06;;;;;;;93.18;75.25;;;16.30;75.80;;;;;;4918604;28;95242;-52
2022/05/22 01:54:40;;;;;;;89.05;72.93;;;16.30;75.80;;;;;;4919590;28;94732;-53
2022/05/22 01:57:12;;;;;;;89.22;72.50;;;16.30;75.70;;;;;;4918894;28;96510;-53
2022/05/22 01:59:45;;;;;;;83.20;68.90;;;16.30;75.70;;;;;;4918430;28;95280;-53
2022/05/22 02:02:21;;;;;;;87.40;70.82;;;16.30;75.70;;;;;;4916015;28;95069;-51
2022/05/22 02:04:57;;;;;;;82.95;69.65;;;16.40;75.70;;;;;;4919141;28;95271;-55
2022/05/22 02:10:22;;;;;;;75.25;62.25;;;16.40;72.70;;;;;;4916369;28;96454;-53
2022/05/22 02:12:58;;;;;;;79.32;66.07;;;16.40;75.60;;;;;;4918251;28;94927;-51
2022/05/22 02:15:31;;;;;;;80.70;62.00;;;16.40;75.60;;;;;;4918236;28;95065;-52
2022/05/22 02:18:04;;;;;;;76.05;59.55;;;16.40;75.60;;;;;;4917697;28;96420;-51
2022/05/22 02:20:37;;;;;;;72.32;57.53;;;16.40;75.50;;;;;;4917707;28;95097;-49
2022/05/22 02:23:08;;;;;;;81.40;61.67;;;16.40;75.50;;;;;;4917879;28;95135;-51
2022/05/22 02:25:46;;;;;;;76.32;60.03;;;16.40;75.50;;;;;;4918076;28;95015;-52
2022/05/22 02:28:22;;;;;;;71.85;58.83;;;16.50;74.00;;;;;;4918175;28;96476;-49
2022/05/22 02:31:02;;;;;;;68.35;57.13;;;16.50;75.50;;;;;;4920854;28;95813;-54
2022/05/22 02:33:35;;;;;;;68.50;56.92;;;16.50;75.50;;;;;;4921179;28;94977;-49
2022/05/22 02:36:13;;;;;;;67.03;54.88;;;16.50;75.40;;;;;;4921231;28;95316;-55
2022/05/22 02:38:49;;;;;;;72.50;56.55;;;16.50;75.40;;;;;;4919455;28;96477;-52
2022/05/22 02:41:22;;;;;;;67.82;54.47;;;16.50;75.40;;;;;;4920381;28;95445;-51
2022/05/22 02:43:58;;;;;;;66.35;51.60;;;16.50;75.30;;;;;;4920951;28;94956;-51
2022/05/22 02:46:29;;;;;;;65.38;51.58;;;16.60;75.30;;;;;;4936728;28;95337;-54
2022/05/22 02:49:04;;;;;;;65.40;53.60;;;16.60;75.30;;;;;;4921617;28;96420;-54
2022/05/22 02:51:40;;;;;;;63.28;49.97;;;16.60;75.30;;;;;;4921276;28;96014;-52
2022/05/22 02:54:14;;;;;;;61.38;47.42;;;16.70;75.30;;;;;;4922040;28;94899;-54
2022/05/22 02:57:02;;;;;;;55.70;44.70;;;16.70;75.20;;;;;;4921924;28;95271;-53
2022/05/22 02:59:45;;;;;;;57.03;45.85;;;16.70;75.10;;;;;;4921082;28;96966;-51
2022/05/22 03:02:32;;;;;;;59.03;46.30;;;16.70;75.10;;;;;;4918976;28;95999;-50
2022/05/22 03:05:05;;;;;;;57.92;44.92;;;16.80;75.10;;;;;;4921024;28;95061;-53
2022/05/22 03:07:39;;;;;;;56.97;46.42;;;16.80;75.10;;;;;;4920675;28;95193;-51
2022/05/22 03:10:29;;;;;;;53.35;42.85;;;16.80;71.90;;;;;;4935164;28;96482;-50
2022/05/22 03:13:01;;;;;;;54.30;42.67;;;16.80;74.90;;;;;;4935108;28;96091;-46
2022/05/22 03:15:37;;;;;;;53.75;42.80;;;16.90;75.00;;;;;;4920473;28;95415;-49
2022/05/22 03:18:09;;;;;;;51.78;41.53;;;16.80;74.90;;;;;;4919270;28;95195;-52
2022/05/22 03:20:41;;;;;;;;;;;16.90;74.80;;;;;;4920819;28;95882;-53
2022/05/22 03:23:13;;;;;;;50.90;39.92;;;16.90;74.80;;;;;;4921983;28;97380;-48
2022/05/22 03:25:48;;;;;;;56.85;43.55;;;16.90;74.80;;;;;;4920681;28;94917;-49
2022/05/22 03:28:23;;;;;;;48.10;39.15;;;17.00;71.70;;;;;;4935231;28;95330;-48
2022/05/22 03:30:55;;;;;;;48.40;39.42;;;17.00;74.70;;;;;;4919867;28;96444;-55
2022/05/22 03:33:27;;;;;;;45.05;37.42;;;17.00;74.60;;;;;;4934384;28;96182;-50
2022/05/22 03:36:00;;;;;;;45.72;37.83;;;17.00;74.60;;;;;;4920174;28;95201;-52
2022/05/22 03:38:33;;;;;;;44.00;36.55;;;17.00;74.50;;;;;;4920327;28;95256;-51
2022/05/22 03:41:07;;;;;;;41.25;33.40;;;17.00;74.40;;;;;;4919172;28;96520;-54
2022/05/22 03:43:41;;;;;;;47.03;36.53;;;17.10;74.50;;;;;;4919666;28;94939;-54
2022/05/22 03:46:41;;;;;;;41.65;33.22;;;17.10;74.40;;;;;;4915759;28;94977;-54
2022/05/22 03:49:14;;;;;;;41.03;33.38;;;17.20;74.40;;;;;;4921324;28;95337;-49
2022/05/22 03:51:49;;;;;;;40.70;32.97;;;17.20;74.30;;;;;;4920717;28;96564;-52
2022/05/22 03:54:25;;;;;;;39.67;29.70;;;17.20;74.30;;;;;;4920757;28;95276;-49
2022/05/22 03:57:01;;;;;;;36.53;30.88;;;17.20;74.20;;;;;;4921128;28;94993;-47
2022/05/22 03:59:41;;;;;;;39.45;30.88;;;17.30;74.50;;;;;;4919746;28;95450;-47
2022/05/22 04:02:13;;;;;;;34.85;29.17;;;17.40;74.50;;;;;;4918912;28;96054;-47
2022/05/22 04:04:48;;;;;;;35.10;28.80;;;17.40;74.50;;;;;;4919867;28;95995;-46
2022/05/22 04:07:27;;;;;;;37.65;30.35;;;17.50;74.50;;;;;;4935190;28;95090;-46
2022/05/22 04:10:03;;;;;;;38.53;30.25;;;17.50;74.40;;;;;;4903903;28;95563;-47
2022/05/22 04:12:39;;;;;;;35.17;29.23;;;17.60;74.40;;;;;;4919341;28;96429;-47
2022/05/22 04:15:18;;;;;;;34.10;27.25;;;17.70;74.40;;;;;;4917939;28;95482;-47
2022/05/22 04:17:57;;;;;;;38.05;28.60;;;17.70;74.40;;;;;;4919361;28;94933;-46
2022/05/22 04:20:32;;;;;;;34.10;26.65;;;17.80;74.40;;;;;;4920010;28;95218;-49
2022/05/22 04:26:14;;;;;;;32.92;27.00;;;17.90;74.50;;;;;;4919132;28;95490;-47
2022/05/22 04:28:46;;;;;;;32.63;26.85;;;17.90;74.40;;;;;;4919308;28;94968;-49
2022/05/22 04:31:25;;;;;;;33.78;26.35;;;17.90;74.40;;;;;;4919791;28;95205;-47
2022/05/22 04:34:16;;;;;;;;;;;18.00;74.30;;;;;;4919459;28;96532;-48
2022/05/22 04:36:48;;;;;;;28.65;24.40;;;18.00;74.20;;;;;;4920964;28;95395;-47
2022/05/22 04:39:54;;;;;;;27.98;23.70;;;18.00;74.10;;;;;;4918303;28;94995;-47
2022/05/22 04:42:26;;;;;;;31.67;25.60;;;18.10;74.10;;;;;;4919660;28;95186;-48
2022/05/22 04:44:59;;;;;;;28.73;23.13;;;18.10;74.00;;;;;;4918269;28;96556;-48
2022/05/22 04:47:45;;;;;;;30.00;24.30;;;18.10;74.00;;;;;;4918467;28;95269;-51
2022/05/22 04:50:18;;;;;;;29.10;22.63;;;18.10;74.10;;;;;;4917533;28;94934;-52
2022/05/22 04:53:09;;;;;;;26.88;20.95;;;18.20;74.10;;;;;;4919217;28;95434;-49
2022/05/22 04:56:00;;;;;;;25.30;21.92;;;18.10;74.10;;;;;;4916955;28;95709;-48
2022/05/22 04:58:38;;;;;;;26.92;22.67;;;18.10;74.10;;;;;;4919323;28;95475;-48
2022/05/22 05:01:15;;;;;;;25.83;21.50;;;18.10;74.10;;;;;;4919487;28;94932;-47
2022/05/22 05:04:11;;;;;;;27.17;21.85;;;18.10;74.10;;;;;;4913397;28;95067;-46
2022/05/22 05:06:52;;;;;;;24.20;21.48;;;18.10;74.10;;;;;;4933528;28;95098;-47
2022/05/22 05:09:45;;;;;;;24.63;20.48;;;18.10;74.10;;;;;;4913021;28;95406;-47
2022/05/22 05:12:41;;;;;;;25.92;20.67;;;18.10;74.10;;;;;;4916137;28;94798;-47
2022/05/22 05:15:29;;;;;;;25.00;20.10;;;18.20;74.00;;;;;;4918889;28;95343;-47
2022/05/22 05:18:16;;;;;;;25.77;20.83;;;18.20;74.00;;;;;;4917082;28;98455;-47
2022/05/22 05:20:51;;;;;;;28.80;20.20;;;18.20;74.10;;;;;;4917907;28;94960;-47
2022/05/22 05:23:26;;;;;;;21.90;17.75;;;18.20;73.90;;;;;;4918444;28;95011;-47
2022/05/22 05:26:23;;;;;;;21.17;18.10;;;18.20;74.00;;;;;;4918520;28;94821;-46
2022/05/22 05:28:59;;;;;;;25.55;19.95;;;18.20;73.90;;;;;;4918147;28;96672;-48
2022/05/22 05:31:41;;;;;;;23.63;18.23;;;18.20;74.00;;;;;;4918401;28;95308;-48
2022/05/22 05:34:16;;;;;;;23.98;17.92;;;18.20;74.00;;;;;;4917096;28;94966;-47
2022/05/22 05:37:05;;;;;;;22.65;19.27;;;18.20;73.70;;;;;;4917309;28;95458;-46
2022/05/22 05:39:47;;;;;;;23.20;18.30;;;18.20;73.70;;;;;;4918227;28;96400;-47
2022/05/22 05:42:34;;;;;;;21.70;17.20;;;18.20;73.80;;;;;;4932935;28;95916;-47
2022/05/22 05:45:10;;;;;;;24.23;18.95;;;18.30;74.00;;;;;;4918686;28;95020;-53
2022/05/22 05:48:10;;;;;;;22.83;17.38;;;18.30;74.10;;;;;;4901039;28;94950;-49
2022/05/22 05:50:55;;;;;;;22.80;17.75;;;18.30;74.20;;;;;;4899686;28;96452;-48
2022/05/22 05:53:52;;;;;;;24.40;17.58;;;18.30;74.20;;;;;;4903927;28;95077;-49
2022/05/22 05:56:46;;;;;;;19.63;16.30;;;18.30;74.20;;;;;;4898382;28;95064;-52
2022/05/22 05:59:28;;;;;;;23.73;16.98;;;18.30;74.20;;;;;;4899516;28;95356;-47
2022/05/22 06:02:15;;;;;;;22.08;16.27;;;18.30;74.30;;;;;;4913078;28;96535;-48
2022/05/22 06:04:48;;;;;;;18.67;16.65;;;18.30;74.30;;;;;;4919784;28;95110;-48
2022/05/22 06:07:21;;;;;;;19.63;14.85;;;18.40;74.40;;;;;;4922441;28;95173;-48
2022/05/22 06:09:55;;;;;;;18.58;14.25;;;18.40;74.40;;;;;;4921644;28;95333;-53
2022/05/22 06:12:52;;;;;;;18.17;14.63;;;18.40;74.40;;;;;;4917708;28;96042;-49
2022/05/22 06:15:25;;;;;;;17.60;14.73;;;18.40;74.40;;;;;;4919598;28;95829;-47
2022/05/22 06:17:58;;;;;;;18.58;14.75;;;18.40;74.20;;;;;;4921194;28;94967;-48
2022/05/22 06:20:30;;;;;;;18.20;13.63;;;18.40;74.00;;;;;;4921425;28;95321;-47
2022/05/22 06:23:10;;;;;;;17.90;13.57;;;18.40;74.10;;;;;;4920801;28;96058;-48
2022/05/22 06:26:00;;;;;;;16.13;13.07;;;18.40;74.20;;;;;;4918211;28;95161;-47
2022/05/22 06:28:59;;;;;;;16.15;13.07;;;18.40;74.10;;;;;;4919593;28;95526;-47
2022/05/22 06:31:59;;;;;;;16.45;13.13;;;18.40;74.10;;;;;;4920527;28;95367;-47
2022/05/22 06:34:50;;;;;;;16.17;11.90;;;18.40;74.20;;;;;;4921049;28;96062;-47
2022/05/22 06:37:43;;;;;;;16.75;12.57;;;18.40;74.10;;;;;;4920781;28;95743;-48
2022/05/22 06:40:40;;;;;;;14.82;12.10;;;18.40;74.20;;;;;;4919532;28;95370;-48
2022/05/22 06:43:53;;;;;;;14.60;12.05;;;18.40;74.10;;;;;;4918483;28;95037;-47
2022/05/22 06:46:50;;;;;;;14.70;10.85;;;18.40;73.90;;;;;;4917124;28;95930;-47
2022/05/22 06:49:32;;;;;;;12.23;10.63;;;18.40;73.90;;;;;;4920528;28;95426;-48
2022/05/22 06:52:11;;;;;;;13.98;10.90;;;18.40;73.80;;;;;;4921059;28;95018;-48
2022/05/22 06:55:16;;;;;;;16.20;11.77;;;18.40;73.80;;;;;;4906938;28;95439;-49
2022/05/22 06:58:11;;;;;;;12.13;9.70;;;18.40;73.80;;;;;;4919497;28;96249;-51
2022/05/22 07:01:01;;;;;;;12.70;9.70;;;18.40;73.60;;;;;;4918531;28;94971;-48
2022/05/22 07:03:59;;;;;;;11.70;10.02;;;18.40;73.70;;;;;;4918574;28;94948;-50
2022/05/22 07:07:14;;;;;;;13.27;9.85;;;18.40;73.70;;;;;;4920526;28;94833;-48
2022/05/22 07:10:04;;;;;;;14.85;9.93;;;18.40;73.70;;;;;;4935456;28;96701;-49
2022/05/22 07:13:04;;;;;;;9.40;8.40;;;18.40;73.70;;;;;;4920575;28;94994;-48
2022/05/22 07:16:04;;;;;;;13.02;9.40;;;18.30;73.50;;;;;;4917299;28;94920;-52
2022/05/22 07:19:17;;;;;;;10.73;8.05;;;18.30;73.50;;;;;;4921475;28;95243;-47
2022/05/22 07:21:54;;;;;;;10.75;8.73;;;18.40;73.60;;;;;;4920543;28;96488;-50
2022/05/22 07:24:37;;;;;;;11.50;9.18;;;18.40;73.60;;;;;;4920636;28;95790;-47
2022/05/22 07:27:29;;;;;;;10.25;8.30;;;18.40;73.50;;;;;;4920876;28;95293;-48
2022/05/22 07:30:17;;;;;;;9.52;8.20;;;18.30;73.50;;;;;;4920927;28;95363;-52
2022/05/22 07:33:14;;;;;;;11.20;7.82;;;18.40;73.60;;;;;;4922402;28;102360;-45
2022/05/22 07:36:02;;;;;;;10.40;8.25;;;18.40;73.60;;;;;;4920414;28;95497;-44
2022/05/22 07:38:36;;;;;;;9.60;8.00;;;18.40;73.60;;;;;;4917813;28;95057;-46
2022/05/22 07:41:37;;;;;;;11.73;8.50;;;18.40;73.40;;;;;;4915525;28;95063;-45
2022/05/22 07:44:31;;;;;;;11.18;8.45;;;18.40;73.40;;;;;;4920407;28;96456;-45
2022/05/22 07:47:12;;;;;;;9.52;7.93;;;18.30;73.40;;;;;;4920813;28;96189;-49
2022/05/22 07:52:55;;;;;;;11.02;8.20;;;18.30;73.40;;;;;;4919958;28;95008;-46
2022/05/22 07:55:32;;;;;;;11.15;7.82;;;18.30;73.50;;;;;;4918228;28;95772;-43
2022/05/22 07:58:24;;;;;;;11.02;7.38;;;18.20;73.50;;;;;;4918532;28;94985;-44
2022/05/22 08:01:18;;;;;;;11.50;8.50;;;18.30;73.90;;;;;;4917505;28;94996;-44
2022/05/22 08:04:22;;;;;;;10.43;7.80;;;18.20;73.80;;;;;;4921565;28;95455;-44
2022/05/22 08:07:12;;;;;;;12.95;8.25;;;18.20;73.80;;;;;;4917378;28;95666;-45
2022/05/22 08:10:01;;;;;;;8.48;6.88;;;18.20;73.80;;;;;;4919983;28;95274;-44
2022/05/22 08:12:44;;;;;;;10.55;8.13;;;18.20;73.70;;;;;;4918937;28;95009;-45
2022/05/22 08:15:23;;;;;;;9.57;8.15;;;18.20;73.80;;;;;;4920483;28;95320;-44
2022/05/22 08:18:02;;;;;;;10.20;7.80;;;18.20;73.80;;;;;;4920114;28;95905;-46
2022/05/22 08:20:38;;;;;;;8.60;7.70;;;18.20;73.80;;;;;;4920093;28;95244;-46
2022/05/22 08:23:19;;;;;;;10.05;7.13;;;18.10;73.70;;;;;;4920135;28;95015;-46
2022/05/22 08:26:00;;;;;;;9.57;8.18;;;18.10;73.90;;;;;;4920048;28;95313;-46
2022/05/22 08:28:35;;;;;;;8.43;7.55;;;18.10;73.70;;;;;;4919866;28;96522;-45
2022/05/22 08:31:11;;;;;;;10.13;8.32;;;18.10;73.80;;;;;;4918183;28;97531;-44
2022/05/22 08:33:47;;;;;;;9.73;6.93;;;18.00;74.00;;;;;;4934690;28;95003;-46
2022/05/22 08:36:18;;;;;;;10.98;8.93;;;18.00;73.80;;;;;;4919939;28;95475;-44
2022/05/22 08:38:52;;;;;;;10.48;8.38;;;18.00;73.80;;;;;;4919766;28;96236;-44
2022/05/22 08:41:35;;;;;;;9.43;8.05;;;18.00;73.70;;;;;;4919704;28;96182;-44
2022/05/22 08:44:16;;;;;;;10.68;8.75;;;18.00;73.90;;;;;;4918677;28;95139;-44
2022/05/22 08:47:06;;;;;;;12.07;8.67;;;18.00;74.10;;;;;;4919675;28;95347;-46
2022/05/22 08:49:57;;;;;;;10.52;9.43;;;17.90;74.20;;;;;;4920938;28;95867;-44
2022/05/22 08:52:42;;;;;;;11.57;9.52;;;17.90;74.30;;;;;;4920745;28;95256;-47
2022/05/22 08:55:22;;;;;;;10.45;8.80;;;17.90;74.40;;;;;;4921067;28;94986;-46
2022/05/22 09:01:23;;;;;;;11.98;8.80;;;17.80;74.50;;;;;;4919530;28;96392;-46
2022/05/22 09:04:11;;;;;;;9.95;8.80;;;17.80;74.40;;;;;;4916793;28;95908;-45
2022/05/22 09:06:50;;;;;;;12.25;9.95;;;17.80;74.50;;;;;;4919881;28;94993;-46
2022/05/22 09:09:27;;;;;;;10.00;8.63;;;17.80;74.50;;;;;;4918934;28;95407;-46
2022/05/22 09:12:32;;;;;;;12.07;9.15;;;17.80;74.50;;;;;;4919102;28;96708;-45
2022/05/22 09:15:42;;;;;;;10.38;8.88;;;17.70;74.40;;;;;;4911710;28;95573;-48
2022/05/22 09:18:39;;;;;;;10.82;9.60;;;17.70;74.30;;;;;;4908133;28;97566;-45
2022/05/22 09:21:30;;;;;;;10.55;8.57;;;17.60;74.00;;;;;;4919650;28;95389;-44
2022/05/22 09:24:19;;;;;;;11.82;8.50;;;17.60;75.30;;;;;;4919407;28;96346;-44
2022/05/22 09:27:13;;;;;;;8.90;7.93;;;17.70;75.40;;;;;;4918988;28;95997;-44
2022/05/22 09:30:09;;;;;;;10.55;8.32;;;17.80;74.20;;;;;;4919277;28;94936;-44
2022/05/22 09:33:10;;;;;;;9.43;7.50;;;17.80;73.80;;;;;;4918133;28;95476;-44
2022/05/22 09:35:49;;;;;;;8.88;7.90;;;17.80;73.70;;;;;;4918915;28;96394;-45
2022/05/22 09:38:56;;;;;;;7.72;6.90;;;17.80;73.80;;;;;;4918127;28;95992;-46
2022/05/22 09:41:57;;;;;;;7.47;6.60;;;17.80;73.60;;;;;;4919152;28;94925;-44
2022/05/22 09:44:33;;;;;;;8.85;7.28;;;17.80;73.80;;;;;;4919604;28;95325;-44
2022/05/22 09:47:27;;;;;;;7.93;6.85;;;17.80;73.90;;;;;;4917198;28;96544;-44
2022/05/22 09:50:08;;;;;;;9.40;6.90;;;17.80;74.00;;;;;;4919835;28;95124;-46
2022/05/22 09:53:09;;;;;;;8.35;6.85;;;17.90;74.40;;;;;;4918644;28;95047;-46
2022/05/22 09:55:45;;;;;;;8.65;7.03;;;17.90;74.10;;;;;;4920072;28;95465;-49
2022/05/22 09:58:25;;;;;;;8.63;7.72;;;17.90;74.10;;;;;;4919621;28;96750;-46
2022/05/22 10:01:39;;;;;;;7.63;6.70;;;17.90;74.10;;;;;;4918444;28;96057;-46
2022/05/22 10:04:46;;;;;;;8.05;7.20;;;17.90;74.00;;;;;;4919398;28;95001;-48
2022/05/22 10:07:39;;;;;;;9.13;6.65;;;17.80;74.00;;;;;;4919730;28;95337;-46
2022/05/22 10:10:33;;;;;;;8.85;6.72;;;17.80;74.10;;;;;;4917566;28;96306;-46
2022/05/22 10:13:23;;;;;;;9.32;6.63;;;17.80;74.00;;;;;;4918426;28;95773;-47
2022/05/22 10:16:08;;;;;;;7.03;6.32;;;17.80;74.10;;;;;;4918668;28;94992;-48
2022/05/22 10:18:53;;;;;;;9.15;7.20;;;17.70;73.90;;;;;;4919084;28;95351;-50
2022/05/22 10:21:48;;;;;;;7.75;6.35;;;17.80;74.00;;;;;;4918132;28;96425;-47
2022/05/22 10:24:28;;;;;;;8.55;6.78;;;17.70;73.80;;;;;;4918282;28;95821;-46
2022/05/22 10:27:50;;;;;;;9.48;6.47;;;17.70;73.90;;;;;;4918748;28;95273;-46
2022/05/22 10:31:03;;;;;;;8.57;6.93;;;17.70;73.90;;;;;;4877650;28;95427;-49
2022/05/22 10:34:09;;;;;;;8.43;7.18;;;17.70;73.90;;;;;;4839619;29;96271;-46
2022/05/22 10:36:51;;;;;;;8.55;7.05;;;17.70;73.80;;;;;;4840080;29;95878;-48
2022/05/22 10:39:23;;;;;;;7.72;6.93;;;17.60;73.80;;;;;;4840269;29;95234;-46
2022/05/22 10:44:54;;;;;;;7.07;6.38;;;17.60;73.80;;;;;;4839926;29;96422;-47
2022/05/22 10:47:31;;;;;;;11.05;7.65;;;17.50;73.80;;;;;;4839687;28;96107;-46
2022/05/22 10:50:18;;;;;;;9.00;7.13;;;17.50;73.90;;;;;;4841004;29;95323;-46
2022/05/22 10:52:52;;;;;;;8.50;7.63;;;17.40;73.80;;;;;;4843919;29;95489;-49
2022/05/22 10:55:45;;;;;;;7.63;6.75;;;17.40;73.90;;;;;;4843349;29;96464;-47
2022/05/22 10:58:28;;;;;;;7.95;7.15;;;17.40;73.90;;;;;;4842947;29;95847;-50
2022/05/22 11:01:04;;;;;;;10.20;7.30;;;17.40;73.90;;;;;;4855770;28;95654;-46
2022/05/22 11:03:37;;;;;;;7.95;6.82;;;17.30;74.00;;;;;;4881720;28;95329;-47
2022/05/22 11:06:23;;;;;;;9.25;7.68;;;17.30;74.10;;;;;;4881037;28;96104;-47
2022/05/22 11:08:57;;;;;;;8.98;7.13;;;17.30;74.10;;;;;;4921598;28;95287;-46
2022/05/22 11:11:31;;;;;;;8.60;7.60;;;17.30;74.10;;;;;;4921441;28;94931;-48
2022/05/22 11:14:15;;;;;;;11.10;8.07;;;17.20;74.00;;;;;;4921453;28;95381;-50
2022/05/22 11:16:47;;;;;;;8.43;7.15;;;17.20;74.20;;;;;;4919907;28;96445;-46
2022/05/22 11:19:26;;;;;;;;;;;17.20;74.10;;;;;;4921285;28;95834;-47
2022/05/22 11:22:09;;;;;;;8.73;7.82;;;17.10;74.20;;;;;;4922228;28;94969;-48
2022/05/22 11:25:09;;;;;;;8.00;7.20;;;17.10;74.20;;;;;;4921457;28;95178;-46
2022/05/22 11:28:10;;;;;;;8.45;7.65;;;17.10;74.10;;;;;;4920648;28;96399;-51
2022/05/22 11:31:16;;;;;;;8.73;7.28;;;17.00;74.10;;;;;;4920641;28;95816;-52
2022/05/22 11:34:27;;;;;;;8.98;7.43;;;17.00;74.10;;;;;;4921094;28;94898;-51
2022/05/22 11:37:11;;;;;;;7.57;6.70;;;17.00;74.20;;;;;;4920959;28;95288;-47
2022/05/22 11:40:07;;;;;;;11.82;8.18;;;16.90;74.20;;;;;;4920775;28;95828;-49
2022/05/22 11:42:40;;;;;;;9.00;7.55;;;16.90;74.30;;;;;;4920497;28;95806;-49
2022/05/22 11:45:20;;;;;;;10.25;8.05;;;16.90;74.20;;;;;;4923234;28;95183;-55
2022/05/22 11:48:21;;;;;;;7.68;6.45;;;16.90;74.40;;;;;;4903179;28;95522;-53
2022/05/22 11:51:10;;;;;;;7.55;6.63;;;17.00;74.80;;;;;;4905445;28;96357;-53
2022/05/22 11:54:07;;;;;;;7.13;5.95;;;17.20;74.60;;;;;;4905093;28;94920;-47
2022/05/22 11:56:58;;;;;;;7.05;6.07;;;17.30;74.40;;;;;;4905727;28;94944;-45
2022/05/22 11:59:56;;;;;;;7.97;6.47;;;17.50;74.20;;;;;;4905508;28;95359;-43
2022/05/22 12:02:53;;;;;;;8.38;6.63;;;17.60;74.00;;;;;;4902946;28;96023;-45
2022/05/22 12:06:05;;;;;;;7.88;6.07;;;17.80;73.70;;;;;;4902270;28;95318;-46
2022/05/22 12:08:43;;;;;;;;;;;17.80;73.50;;;;;;4888128;28;95253;-51
2022/05/22 12:11:28;;;;;;;7.88;6.60;;;17.80;73.40;;;;;;4901424;28;95306;-50
2022/05/22 12:14:29;;;;;;;7.00;6.13;;;17.80;73.10;;;;;;4901351;28;95881;-54
2022/05/22 12:17:21;;;;;;;7.63;6.37;;;17.90;73.00;;;;;;4898969;28;103575;-52
2022/05/22 12:20:11;;;;;;;7.57;6.20;;;17.90;72.70;;;;;;4901472;28;94990;-54
2022/05/22 12:23:10;;;;;;;9.35;6.53;;;17.90;72.50;;;;;;4901124;28;95163;-52
2022/05/22 12:26:00;;;;;;;9.40;6.60;;;17.80;72.20;;;;;;4900891;28;96430;-54
2022/05/22 12:29:04;;;;;;;10.07;7.35;;;17.90;72.00;;;;;;4900522;28;95798;-50
2022/05/22 12:31:44;;;;;;;7.68;6.47;;;17.90;72.30;;;;;;4899274;28;95483;-46
2022/05/22 12:34:27;;;;;;;7.05;6.35;;;18.00;72.30;;;;;;4901073;28;95365;-47
2022/05/22 12:37:01;;;;;;;8.88;6.45;;;18.20;72.10;;;;;;4900406;28;96428;-53
2022/05/22 12:39:43;;;;;;;7.80;6.55;;;18.30;71.90;;;;;;4900577;28;95959;-52
2022/05/22 12:42:25;;;;;;;8.02;6.63;;;18.40;71.70;;;;;;4900898;28;95063;-51
2022/05/22 12:44:58;;;;;;;7.85;6.78;;;18.50;71.60;;;;;;4901441;28;95270;-55
2022/05/22 12:47:44;;;;;;;6.55;5.65;;;18.60;71.40;;;;;;4903197;28;96491;-59
2022/05/22 12:50:44;;;;;;;6.88;6.10;;;18.60;71.50;;;;;;4902344;28;95847;-54
2022/05/22 12:53:30;;;;;;;7.35;6.45;;;18.70;71.40;;;;;;4902013;28;95003;-62
2022/05/22 12:56:25;;;;;;;7.50;6.43;;;18.80;71.40;;;;;;4902116;28;95296;-58
2022/05/22 12:59:01;;;;;;;6.72;6.03;;;18.80;71.30;;;;;;4899852;28;95955;-56
2022/05/22 13:01:45;;;;;;;9.40;7.07;;;18.90;71.40;;;;;;4899356;28;95970;-55
2022/05/22 13:04:20;;;;;;;7.57;6.70;;;19.00;71.10;;;;;;4901088;28;94908;-59
2022/05/22 13:07:02;;;;;;;6.65;6.05;;;19.00;71.00;;;;;;4899987;28;95361;-52
2022/05/22 13:09:43;;;;;;;9.60;7.47;;;19.10;71.10;;;;;;4899606;28;96276;-54
2022/05/22 13:12:16;;;;;;;7.32;6.32;;;19.20;71.00;;;;;;4900448;28;95254;-56
2022/05/22 13:14:51;;;;;;;10.38;8.75;;;19.20;70.80;;;;;;4900228;28;94942;-48
2022/05/22 13:17:40;;;;;;;10.55;8.48;;;19.20;69.60;;;;;;4898159;28;95335;-52
2022/05/22 13:20:44;;;;;;;9.20;7.97;;;19.10;69.70;;;;;;4901107;28;95384;-50
2022/05/22 13:23:23;;;;;;;9.43;8.40;;;19.10;70.20;;;;;;4899785;28;95257;-50
2022/05/22 13:26:04;;;;;;;9.60;8.00;;;19.20;70.20;;;;;;4900729;28;94965;-52
2022/05/22 13:28:43;;;;;;;10.85;8.02;;;19.30;70.00;;;;;;4901338;28;95206;-56
2022/05/22 13:31:18;;;;;;;9.15;8.07;;;19.30;69.90;;;;;;4902213;28;96373;-52
2022/05/22 13:33:55;;;;;;;9.05;7.18;;;19.40;69.90;;;;;;4902345;28;95886;-54
2022/05/22 13:36:35;;;;;;;9.05;7.25;;;19.50;70.00;;;;;;4903400;28;94933;-55
2022/05/22 13:39:17;;;;;;;8.70;7.80;;;19.50;69.90;;;;;;4901161;28;95190;-55
2022/05/22 13:42:35;;;;;;;12.32;8.45;;;19.60;69.70;;;;;;4902040;28;96485;-53
2022/05/22 13:45:22;;;;;;;9.50;7.43;;;19.60;69.70;;;;;;4901770;28;95055;-54
2022/05/22 13:48:24;;;;;;;8.15;7.03;;;19.70;69.50;;;;;;4903080;28;95620;-56
2022/05/22 13:54:27;;;;;;;8.63;7.05;;;19.80;69.30;;;;;;4902337;28;96620;-50
2022/05/22 13:57:05;;;;;;;8.30;7.32;;;19.90;69.30;;;;;;4883908;28;95300;-58
2022/05/22 13:59:45;;;;;;;10.65;8.02;;;19.90;69.20;;;;;;4901679;28;95018;-56
2022/05/22 14:02:38;;;;;;;10.95;7.80;;;19.90;69.20;;;;;;4901366;28;95214;-54
2022/05/22 14:05:13;;;;;;;8.88;7.72;;;20.00;69.00;;;;;;4901058;28;96609;-55
2022/05/22 14:07:55;;;;;;;9.43;8.30;;;20.10;69.10;;;;;;4901675;28;95645;-58
2022/05/22 14:10:35;;;;;;;9.93;8.25;;;20.10;69.00;;;;;;4900482;28;95044;-60
2022/05/22 14:13:21;;;;;;;10.88;8.30;;;20.20;69.10;;;;;;4901668;28;95189;-59